createdAt,value
2022-10-22T00:02:21.661Z,100.00
2022-10-22T00:04:49.196Z,100.00
2022-10-22T00:07:17.234Z,100.00
2022-10-22T00:09:44.498Z,100.00
2022-10-22T00:12:11.444Z,100.00
2022-10-22T00:14:38.350Z,100.00
2022-10-22T00:17:07.032Z,100.00
2022-10-22T00:19:38.517Z,100.00
2022-10-22T00:22:07.773Z,100.00
2022-10-22T00:24:35.256Z,100.00
2022-10-22T00:27:02.348Z,100.00
2022-10-22T00:29:29.375Z,100.00
2022-10-22T00:34:24.206Z,100.00
2022-10-22T00:36:51.958Z,100.00
2022-10-22T00:39:20.676Z,100.00
2022-10-22T00:41:48.750Z,100.00
2022-10-22T00:44:52.980Z,100.00
2022-10-22T00:47:20.951Z,100.00
2022-10-22T00:49:48.112Z,100.00
2022-10-22T00:52:14.883Z,100.00
2022-10-22T00:54:42.444Z,100.00
2022-10-22T00:57:09.503Z,100.00
2022-10-22T00:59:37.685Z,100.00
2022-10-22T01:02:04.616Z,100.00
2022-10-22T01:04:31.155Z,100.00
2022-10-22T01:06:57.766Z,100.00
2022-10-22T01:09:24.284Z,100.00
2022-10-22T01:12:08.987Z,100.00
2022-10-22T01:15:01.510Z,100.00
2022-10-22T01:17:43.835Z,100.00
2022-10-22T01:20:16.564Z,100.00
2022-10-22T01:23:01.106Z,100.00
2022-10-22T01:25:41.690Z,100.00
2022-10-22T01:28:33.978Z,100.00
2022-10-22T01:31:02.697Z,100.00
2022-10-22T01:33:31.067Z,100.00
2022-10-22T01:35:59.990Z,100.00
2022-10-22T01:38:27.106Z,100.00
2022-10-22T01:40:54.696Z,100.00
2022-10-22T01:43:21.522Z,100.00
2022-10-22T01:45:56.699Z,100.00
2022-10-22T01:49:01.385Z,100.00
2022-10-22T01:51:53.814Z,100.00
2022-10-22T01:54:47.903Z,100.00
2022-10-22T01:57:24.899Z,100.00
2022-10-22T02:00:03.689Z,100.00
2022-10-22T02:02:36.765Z,100.00
2022-10-22T02:05:11.250Z,100.00
2022-10-22T02:07:43.820Z,100.00
2022-10-22T02:10:11.998Z,100.00
2022-10-22T02:12:40.237Z,100.00
2022-10-22T02:15:08.679Z,100.00
2022-10-22T02:17:38.513Z,100.00
2022-10-22T02:20:12.808Z,100.00
2022-10-22T02:22:40.206Z,100.00
2022-10-22T02:25:07.926Z,100.00
2022-10-22T02:27:40.668Z,100.00
2022-10-22T02:30:11.666Z,100.00
2022-10-22T02:33:00.288Z,100.00
2022-10-22T02:35:29.180Z,100.00
2022-10-22T02:37:58.482Z,100.00
2022-10-22T02:40:25.633Z,100.00
2022-10-22T02:42:53.299Z,100.00
2022-10-22T02:45:20.695Z,100.00
2022-10-22T02:47:47.574Z,100.00
2022-10-22T02:50:14.332Z,100.00
2022-10-22T02:52:41.038Z,100.00
2022-10-22T02:55:08.220Z,100.00
2022-10-22T02:57:34.815Z,100.00
2022-10-22T03:00:01.386Z,100.00
2022-10-22T03:02:27.983Z,100.00
2022-10-22T03:04:54.565Z,100.00
2022-10-22T03:07:21.180Z,100.00
2022-10-22T03:09:47.737Z,100.00
2022-10-22T03:12:14.345Z,100.00
2022-10-22T03:14:40.964Z,100.00
2022-10-22T03:17:07.574Z,100.00
2022-10-22T03:19:34.115Z,100.00
2022-10-22T03:22:05.510Z,100.00
2022-10-22T03:24:38.221Z,100.00
2022-10-22T03:27:04.797Z,100.00
2022-10-22T03:29:34.128Z,100.00
2022-10-22T03:32:00.767Z,100.00
2022-10-22T03:34:27.675Z,100.00
2022-10-22T03:36:56.195Z,100.00
2022-10-22T03:39:23.157Z,100.00
2022-10-22T03:41:51.225Z,100.00
2022-10-22T03:44:18.532Z,100.00
2022-10-22T03:46:45.341Z,100.00
2022-10-22T03:49:11.931Z,100.00
2022-10-22T03:51:38.612Z,100.00
2022-10-22T03:54:05.361Z,100.00
2022-10-22T03:56:32.490Z,100.00
2022-10-22T03:59:00.726Z,100.00
2022-10-22T04:01:29.353Z,100.00
2022-10-22T04:03:56.365Z,100.00
2022-10-22T04:06:23.366Z,100.00
2022-10-22T04:08:50.262Z,100.00
2022-10-22T04:11:17.585Z,100.00
2022-10-22T04:13:44.943Z,100.00
2022-10-22T04:16:17.700Z,100.00
2022-10-22T04:18:46.202Z,100.00
2022-10-22T04:21:15.591Z,100.00
2022-10-22T04:23:47.157Z,100.00
2022-10-22T04:26:14.174Z,100.00
2022-10-22T04:28:41.403Z,100.00
2022-10-22T04:31:13.001Z,100.00
2022-10-22T04:33:40.866Z,100.00
2022-10-22T04:36:13.219Z,100.00
2022-10-22T04:38:40.903Z,100.00
2022-10-22T04:41:19.803Z,100.00
2022-10-22T04:43:47.142Z,100.00
2022-10-22T04:46:16.106Z,100.00
2022-10-22T04:48:43.952Z,100.00
2022-10-22T04:51:19.960Z,100.00
2022-10-22T04:53:47.216Z,100.00
2022-10-22T04:56:16.541Z,100.00
2022-10-22T04:58:44.066Z,100.00
2022-10-22T05:01:20.065Z,100.00
2022-10-22T05:03:48.547Z,100.00
2022-10-22T05:06:16.618Z,100.00
2022-10-22T05:08:43.594Z,100.00
2022-10-22T05:11:21.801Z,100.00
2022-10-22T05:13:49.053Z,100.00
2022-10-22T05:16:16.111Z,100.00
2022-10-22T05:18:44.093Z,100.00
2022-10-22T05:21:15.951Z,100.00
2022-10-22T05:23:43.751Z,100.00
2022-10-22T05:26:12.225Z,100.00
2022-10-22T05:28:39.500Z,100.00
2022-10-22T05:31:08.692Z,100.00
2022-10-22T05:33:35.441Z,100.00
2022-10-22T05:36:04.417Z,100.00
2022-10-22T05:38:32.423Z,100.00
2022-10-22T05:41:06.579Z,100.00
2022-10-22T05:43:33.891Z,100.00
2022-10-22T05:46:09.964Z,100.00
2022-10-22T05:48:37.033Z,100.00
2022-10-22T05:51:05.976Z,100.00
2022-10-22T05:53:37.832Z,100.00
2022-10-22T05:56:07.124Z,100.00
2022-10-22T05:58:34.827Z,100.00
2022-10-22T06:01:06.636Z,100.00
2022-10-22T06:03:33.605Z,100.00
2022-10-22T06:06:07.767Z,100.00
2022-10-22T06:08:34.433Z,100.00
2022-10-22T06:11:01.099Z,100.00
2022-10-22T06:13:27.742Z,100.00
2022-10-22T06:15:54.344Z,100.00
2022-10-22T06:18:21.002Z,100.00
2022-10-22T06:20:47.664Z,100.00
2022-10-22T06:23:15.277Z,100.00
2022-10-22T06:25:42.395Z,100.00
2022-10-22T06:28:09.549Z,100.00
2022-10-22T06:30:41.800Z,100.00
2022-10-22T06:33:10.978Z,100.00
2022-10-22T06:35:37.530Z,100.00
2022-10-22T06:38:04.084Z,100.00
2022-10-22T06:40:30.633Z,100.00
2022-10-22T06:42:59.872Z,100.00
2022-10-22T06:45:26.520Z,100.00
2022-10-22T06:47:53.642Z,100.00
2022-10-22T06:50:20.213Z,100.00
2022-10-22T06:52:46.904Z,100.00
2022-10-22T06:55:13.585Z,100.00
2022-10-22T06:57:40.477Z,100.00
2022-10-22T07:00:07.754Z,100.00
2022-10-22T07:02:34.783Z,100.00
2022-10-22T07:05:01.345Z,100.00
2022-10-22T07:07:28.007Z,100.00
2022-10-22T07:09:54.571Z,100.00
2022-10-22T07:12:21.692Z,100.00
2022-10-22T07:14:49.338Z,100.00
2022-10-22T07:17:15.937Z,100.00
2022-10-22T07:19:42.499Z,100.00
2022-10-22T07:22:09.127Z,100.00
2022-10-22T07:24:35.772Z,100.00
2022-10-22T07:27:02.326Z,100.00
2022-10-22T07:29:28.916Z,100.00
2022-10-22T07:31:55.451Z,100.00
2022-10-22T07:34:22.055Z,100.00
2022-10-22T07:36:48.611Z,100.00
2022-10-22T07:39:15.170Z,100.00
2022-10-22T07:41:41.761Z,100.00
2022-10-22T07:44:08.323Z,100.00
2022-10-22T07:46:35.310Z,100.00
2022-10-22T07:49:01.956Z,100.00
2022-10-22T07:51:28.648Z,100.00
2022-10-22T07:53:55.290Z,100.00
2022-10-22T07:56:21.989Z,100.00
2022-10-22T07:58:48.600Z,100.00
2022-10-22T08:01:15.377Z,100.00
2022-10-22T08:03:42.000Z,100.00
2022-10-22T08:06:10.112Z,100.00
2022-10-22T08:08:36.715Z,100.00
2022-10-22T08:11:03.464Z,100.00
2022-10-22T08:13:31.573Z,100.00
2022-10-22T08:16:01.966Z,100.00
2022-10-22T08:18:29.365Z,100.00
2022-10-22T08:20:56.141Z,100.00
2022-10-22T08:23:26.020Z,100.00
2022-10-22T08:25:54.072Z,100.00
2022-10-22T08:28:22.121Z,100.00
2022-10-22T08:30:49.138Z,100.00
2022-10-22T08:33:15.867Z,100.00
2022-10-22T08:35:42.511Z,100.00
2022-10-22T08:38:09.071Z,100.00
2022-10-22T08:40:40.698Z,100.00
2022-10-22T08:43:25.814Z,100.00
2022-10-22T08:46:04.419Z,100.00
2022-10-22T08:48:50.683Z,100.00
2022-10-22T08:51:21.444Z,100.00
2022-10-22T08:54:14.329Z,100.00
2022-10-22T08:56:47.821Z,100.00
2022-10-22T08:59:25.450Z,100.00
2022-10-22T09:01:53.894Z,100.00
2022-10-22T09:04:25.267Z,100.00
2022-10-22T09:06:57.639Z,100.00
2022-10-22T09:09:27.971Z,100.00
2022-10-22T09:11:57.968Z,100.00
2022-10-22T09:14:26.244Z,100.00
2022-10-22T09:17:01.764Z,100.00
2022-10-22T09:19:46.567Z,100.00
2022-10-22T09:25:25.885Z,100.00
2022-10-22T09:27:54.349Z,100.00
2022-10-22T09:30:24.103Z,100.00
2022-10-22T09:33:00.696Z,100.00
2022-10-22T09:35:27.555Z,100.00
2022-10-22T09:37:56.721Z,100.00
2022-10-22T09:40:23.801Z,100.00
2022-10-22T09:42:50.402Z,100.00
2022-10-22T09:45:35.104Z,100.00
2022-10-22T09:48:26.454Z,100.00
2022-10-22T09:51:19.263Z,100.00
2022-10-22T09:53:57.838Z,100.00
2022-10-22T09:56:27.733Z,100.00
2022-10-22T09:58:57.743Z,100.00
2022-10-22T10:01:24.227Z,100.00
2022-10-22T10:03:50.852Z,100.00
2022-10-22T10:06:20.110Z,100.00
2022-10-22T10:08:47.297Z,100.00
2022-10-22T10:11:46.135Z,100.00
2022-10-22T10:14:36.212Z,100.00
2022-10-22T10:17:21.324Z,100.00
2022-10-22T10:20:12.745Z,100.00
2022-10-22T10:22:51.247Z,100.00
2022-10-22T10:25:46.870Z,100.00
2022-10-22T10:28:16.530Z,100.00
2022-10-22T10:31:03.835Z,100.00
2022-10-22T10:33:38.981Z,88.30
2022-10-22T10:36:05.899Z,90.81
2022-10-22T10:38:56.733Z,85.20
2022-10-22T10:41:26.304Z,92.22
2022-10-22T10:44:09.260Z,93.50
2022-10-22T10:46:41.589Z,97.61
2022-10-22T10:49:29.873Z,86.07
2022-10-22T10:52:06.552Z,83.72
2022-10-22T10:54:53.765Z,78.33
2022-10-22T10:57:59.900Z,71.08
2022-10-22T11:00:30.393Z,66.07
2022-10-22T11:03:19.946Z,76.91
2022-10-22T11:05:58.873Z,67.10
2022-10-22T11:08:38.082Z,58.97
2022-10-22T11:14:03.117Z,50.45
2022-10-22T11:16:43.025Z,51.80
2022-10-22T11:19:57.787Z,55.81
2022-10-22T11:22:44.498Z,51.98
2022-10-22T11:25:31.864Z,50.56
2022-10-22T11:28:11.289Z,50.54
2022-10-22T11:30:40.882Z,47.39
2022-10-22T11:33:12.561Z,49.25
2022-10-22T11:35:43.762Z,49.59
2022-10-22T11:38:18.525Z,47.21
2022-10-22T11:40:50.891Z,48.54
2022-10-22T11:43:35.806Z,45.78
2022-10-22T11:46:27.959Z,44.51
2022-10-22T11:49:28.561Z,43.77
2022-10-22T11:52:26.820Z,46.52
2022-10-22T11:54:57.964Z,47.24
2022-10-22T11:57:38.027Z,44.49
2022-10-22T12:00:39.499Z,43.60
2022-10-22T12:03:25.198Z,42.15
2022-10-22T12:06:12.147Z,45.69
2022-10-22T12:08:54.482Z,42.97
2022-10-22T12:11:36.529Z,42.79
2022-10-22T12:14:03.133Z,41.30
2022-10-22T12:16:55.302Z,40.21
2022-10-22T12:19:22.730Z,42.56
2022-10-22T12:22:03.050Z,41.46
2022-10-22T12:24:34.226Z,42.07
2022-10-22T12:27:00.866Z,41.99
2022-10-22T12:29:28.579Z,40.78
2022-10-22T12:31:55.919Z,41.15
2022-10-22T12:34:25.140Z,40.10
2022-10-22T12:36:53.936Z,40.85
2022-10-22T12:39:24.594Z,39.84
2022-10-22T12:41:52.626Z,39.55
2022-10-22T12:44:19.274Z,41.87
2022-10-22T12:46:51.733Z,41.24
2022-10-22T12:49:24.854Z,39.57
2022-10-22T12:51:51.447Z,39.82
2022-10-22T12:54:33.352Z,39.83
2022-10-22T12:57:00.985Z,39.00
2022-10-22T12:59:36.782Z,37.59
2022-10-22T13:02:21.573Z,38.80
2022-10-22T13:05:15.110Z,36.44
2022-10-22T13:07:46.460Z,38.03
2022-10-22T13:10:22.011Z,38.64
2022-10-22T13:12:55.330Z,37.55
2022-10-22T13:15:27.840Z,36.97
2022-10-22T13:18:06.666Z,35.29
2022-10-22T13:20:37.245Z,35.17
2022-10-22T13:23:05.294Z,37.19
2022-10-22T13:25:39.775Z,34.87
2022-10-22T13:28:12.398Z,35.95
2022-10-22T13:30:40.040Z,38.71
2022-10-22T13:33:27.453Z,37.25
2022-10-22T13:35:56.289Z,35.69
2022-10-22T13:38:25.586Z,38.60
2022-10-22T13:40:52.226Z,38.45
2022-10-22T13:43:19.805Z,35.67
2022-10-22T13:45:48.572Z,38.21
2022-10-22T13:48:16.863Z,37.59
2022-10-22T13:50:43.687Z,38.67
2022-10-22T13:53:25.383Z,38.39
2022-10-22T13:55:52.019Z,36.57
2022-10-22T13:58:21.136Z,37.32
2022-10-22T14:00:59.896Z,37.61
2022-10-22T14:03:30.642Z,37.24
2022-10-22T14:05:57.661Z,36.81
2022-10-22T14:08:26.737Z,37.21
2022-10-22T14:10:54.025Z,36.44
2022-10-22T14:13:23.581Z,35.72
2022-10-22T14:15:52.190Z,35.57
2022-10-22T14:18:31.456Z,35.39
2022-10-22T14:21:07.427Z,35.67
2022-10-22T14:23:36.351Z,36.90
2022-10-22T14:26:04.104Z,36.40
2022-10-22T14:28:34.230Z,35.71
2022-10-22T14:31:10.944Z,37.16
2022-10-22T14:33:37.536Z,35.70
2022-10-22T14:36:04.106Z,34.17
2022-10-22T14:38:30.714Z,36.22
2022-10-22T14:40:59.656Z,34.74
2022-10-22T14:43:31.329Z,37.58
2022-10-22T14:45:58.305Z,36.88
2022-10-22T14:48:25.028Z,36.59
2022-10-22T14:50:51.701Z,37.34
2022-10-22T14:53:18.318Z,36.08
2022-10-22T14:55:47.101Z,35.89
2022-10-22T14:58:14.472Z,36.96
2022-10-22T15:00:42.644Z,40.65
2022-10-22T15:03:10.083Z,43.59
2022-10-22T15:05:44.136Z,49.19
2022-10-22T15:08:12.230Z,52.72
2022-10-22T15:10:38.891Z,59.42
2022-10-22T15:13:05.601Z,63.35
2022-10-22T15:15:36.707Z,67.34
2022-10-22T15:18:06.041Z,75.46
2022-10-22T15:20:32.621Z,76.10
2022-10-22T15:22:59.449Z,77.81
2022-10-22T15:25:26.042Z,80.54
2022-10-22T15:27:54.858Z,85.35
2022-10-22T15:30:26.123Z,87.80
2022-10-22T15:32:52.672Z,89.69
2022-10-22T15:35:19.252Z,89.16
2022-10-22T15:37:45.812Z,93.50
2022-10-22T15:40:12.533Z,94.31
2022-10-22T15:42:39.407Z,97.59
2022-10-22T15:45:06.816Z,99.42
2022-10-22T15:47:33.975Z,100.00
2022-10-22T15:50:00.541Z,100.00
2022-10-22T15:52:27.121Z,100.00
2022-10-22T15:54:53.798Z,100.00
2022-10-22T15:57:20.417Z,100.00
2022-10-22T15:59:47.237Z,100.00
2022-10-22T16:02:13.852Z,100.00
2022-10-22T16:04:40.513Z,100.00
2022-10-22T16:07:07.216Z,100.00
2022-10-22T16:09:33.850Z,100.00
2022-10-22T16:12:00.730Z,100.00
2022-10-22T16:14:28.720Z,100.00
2022-10-22T16:16:56.125Z,100.00
2022-10-22T16:19:24.154Z,100.00
2022-10-22T16:21:53.006Z,100.00
2022-10-22T16:24:20.321Z,100.00
2022-10-22T16:26:47.544Z,100.00
2022-10-22T16:29:14.746Z,100.00
2022-10-22T16:31:43.560Z,100.00
2022-10-22T16:34:10.432Z,100.00
2022-10-22T16:36:38.212Z,100.00
2022-10-22T16:39:05.930Z,100.00
2022-10-22T16:41:36.919Z,100.00
2022-10-22T16:44:07.716Z,100.00
2022-10-22T16:46:36.703Z,100.00
2022-10-22T16:49:03.355Z,100.00
2022-10-22T16:51:29.999Z,100.00
2022-10-22T16:53:57.644Z,100.00
2022-10-22T16:56:25.431Z,100.00
2022-10-22T16:58:54.579Z,100.00
2022-10-22T17:01:23.007Z,100.00
2022-10-22T17:03:49.756Z,100.00
2022-10-22T17:06:16.379Z,100.00
2022-10-22T17:08:43.542Z,100.00
2022-10-22T17:11:13.203Z,100.00
2022-10-22T17:13:44.538Z,100.00
2022-10-22T17:16:13.961Z,100.00
2022-10-22T17:18:41.602Z,100.00
2022-10-22T17:21:10.546Z,100.00
2022-10-22T17:23:37.412Z,100.00
2022-10-22T17:26:06.760Z,100.00
2022-10-22T17:28:34.307Z,100.00
2022-10-22T17:31:04.997Z,100.00
2022-10-22T17:33:32.474Z,100.00
2022-10-22T17:35:59.082Z,100.00
2022-10-22T17:38:25.792Z,100.00
2022-10-22T17:40:52.399Z,100.00
2022-10-22T17:43:19.042Z,100.00
2022-10-22T17:45:45.908Z,100.00
2022-10-22T17:48:12.546Z,100.00
2022-10-22T17:50:45.731Z,100.00
2022-10-22T17:53:13.561Z,100.00
2022-10-22T17:55:41.473Z,100.00
2022-10-22T17:58:08.032Z,100.00
2022-10-22T18:00:36.053Z,100.00
2022-10-22T18:03:03.048Z,100.00
2022-10-22T18:05:29.663Z,100.00
2022-10-22T18:07:57.011Z,100.00
2022-10-22T18:10:24.509Z,100.00
2022-10-22T18:12:51.034Z,100.00
2022-10-22T18:15:17.870Z,100.00
2022-10-22T18:17:46.954Z,100.00
2022-10-22T18:20:13.609Z,100.00
2022-10-22T18:22:42.157Z,100.00
2022-10-22T18:25:09.610Z,100.00
2022-10-22T18:27:37.112Z,100.00
2022-10-22T18:30:04.046Z,100.00
2022-10-22T18:32:32.866Z,100.00
2022-10-22T18:34:59.501Z,100.00
2022-10-22T18:37:26.099Z,100.00
2022-10-22T18:39:52.633Z,100.00
2022-10-22T18:42:19.202Z,100.00
2022-10-22T18:44:45.827Z,100.00
2022-10-22T18:47:12.377Z,100.00
2022-10-22T18:49:39.808Z,100.00
2022-10-22T18:52:06.379Z,100.00
2022-10-22T18:54:33.094Z,100.00
2022-10-22T18:57:02.897Z,100.00
2022-10-22T18:59:30.435Z,100.00
2022-10-22T19:02:00.659Z,100.00
2022-10-22T19:04:37.255Z,100.00
2022-10-22T19:07:05.238Z,100.00
2022-10-22T19:09:32.238Z,100.00
2022-10-22T19:11:58.811Z,100.00
2022-10-22T19:14:25.762Z,100.00
2022-10-22T19:16:52.397Z,100.00
2022-10-22T19:19:21.054Z,100.00
2022-10-22T19:21:48.566Z,100.00
2022-10-22T19:24:17.200Z,100.00
2022-10-22T19:26:44.607Z,100.00
2022-10-22T19:29:11.197Z,100.00
2022-10-22T19:31:38.269Z,100.00
2022-10-22T19:34:05.165Z,100.00
2022-10-22T19:36:32.676Z,100.00
2022-10-22T19:38:59.548Z,100.00
2022-10-22T19:41:28.001Z,100.00
2022-10-22T19:43:55.605Z,100.00
2022-10-22T19:46:23.110Z,100.00
2022-10-22T19:48:51.303Z,100.00
2022-10-22T19:51:21.125Z,100.00
2022-10-22T19:53:48.303Z,100.00
2022-10-22T19:56:18.587Z,100.00
2022-10-22T19:58:45.339Z,100.00
2022-10-22T20:01:15.174Z,100.00
2022-10-22T20:03:42.357Z,100.00
2022-10-22T20:06:10.862Z,100.00
2022-10-22T20:08:38.043Z,100.00
2022-10-22T20:11:07.068Z,100.00
2022-10-22T20:13:34.620Z,100.00
2022-10-22T20:16:01.462Z,100.00
2022-10-22T20:18:28.107Z,100.00
2022-10-22T20:20:54.663Z,100.00
2022-10-22T20:23:21.448Z,100.00
2022-10-22T20:25:48.173Z,100.00
2022-10-22T20:28:15.423Z,100.00
2022-10-22T20:30:43.484Z,100.00
2022-10-22T20:33:15.075Z,100.00
2022-10-22T20:35:42.171Z,100.00
2022-10-22T20:38:13.771Z,100.00
2022-10-22T20:40:40.216Z,100.00
2022-10-22T20:43:09.490Z,100.00
2022-10-22T20:45:38.393Z,100.00
2022-10-22T20:48:05.685Z,100.00
2022-10-22T20:50:32.759Z,100.00
2022-10-22T20:52:59.616Z,100.00
2022-10-22T20:55:26.904Z,100.00
2022-10-22T20:57:53.704Z,100.00
2022-10-22T21:00:20.450Z,100.00
2022-10-22T21:02:47.017Z,100.00
2022-10-22T21:05:13.682Z,100.00
2022-10-22T21:07:40.645Z,100.00
2022-10-22T21:10:07.858Z,100.00
2022-10-22T21:12:34.567Z,100.00
2022-10-22T21:15:01.194Z,100.00
2022-10-22T21:17:27.780Z,100.00
2022-10-22T21:19:54.342Z,100.00
2022-10-22T21:22:21.019Z,100.00
2022-10-22T21:24:47.603Z,100.00
2022-10-22T21:27:14.196Z,100.00
2022-10-22T21:29:40.731Z,100.00
2022-10-22T21:32:07.555Z,100.00
2022-10-22T21:34:38.153Z,100.00
2022-10-22T21:37:05.704Z,100.00
2022-10-22T21:39:32.398Z,100.00
2022-10-22T21:41:58.977Z,100.00
2022-10-22T21:44:25.568Z,100.00
2022-10-22T21:46:52.351Z,100.00
2022-10-22T21:49:19.254Z,100.00
2022-10-22T21:51:45.843Z,100.00
2022-10-22T21:54:12.766Z,100.00
2022-10-22T21:56:39.483Z,100.00
2022-10-22T21:59:06.654Z,100.00
2022-10-22T22:01:33.953Z,100.00
2022-10-22T22:04:01.041Z,100.00
2022-10-22T22:06:32.226Z,100.00
2022-10-22T22:09:00.556Z,100.00
2022-10-22T22:11:28.337Z,100.00
2022-10-22T22:13:56.729Z,100.00
2022-10-22T22:16:28.610Z,100.00
2022-10-22T22:18:58.840Z,100.00
2022-10-22T22:21:25.566Z,100.00
2022-10-22T22:23:52.484Z,100.00
2022-10-22T22:26:25.466Z,100.00
2022-10-22T22:28:55.838Z,100.00
2022-10-22T22:31:28.271Z,100.00
2022-10-22T22:34:04.589Z,100.00
2022-10-22T22:36:37.060Z,100.00
2022-10-22T22:39:05.880Z,100.00
2022-10-22T22:41:32.536Z,100.00
2022-10-22T22:43:59.115Z,100.00
2022-10-22T22:46:25.872Z,100.00
2022-10-22T22:48:52.473Z,100.00
2022-10-22T22:51:19.300Z,100.00
2022-10-22T22:53:46.088Z,100.00
2022-10-22T22:56:12.595Z,100.00
2022-10-22T22:58:43.051Z,100.00
2022-10-22T23:01:14.686Z,100.00
2022-10-22T23:03:42.034Z,100.00
2022-10-22T23:06:09.698Z,100.00
2022-10-22T23:08:36.778Z,100.00
2022-10-22T23:11:12.771Z,100.00
2022-10-22T23:13:40.770Z,100.00
2022-10-22T23:16:09.957Z,100.00
2022-10-22T23:18:36.585Z,100.00
2022-10-22T23:21:11.379Z,100.00
2022-10-22T23:23:37.916Z,100.00
2022-10-22T23:26:04.602Z,100.00
2022-10-22T23:28:31.137Z,100.00
2022-10-22T23:30:57.695Z,100.00
2022-10-22T23:33:24.235Z,100.00
2022-10-22T23:35:50.810Z,100.00
2022-10-22T23:38:17.399Z,100.00
2022-10-22T23:40:43.935Z,100.00
2022-10-22T23:43:10.519Z,100.00
2022-10-22T23:45:37.145Z,100.00
2022-10-22T23:48:03.904Z,100.00
2022-10-22T23:50:30.518Z,100.00
2022-10-22T23:52:57.197Z,100.00
2022-10-22T23:55:23.838Z,100.00
2022-10-22T23:57:50.416Z,100.00
